createdAt,value
2023-04-10T00:04:14.891Z,15.20
2023-04-10T00:08:31.628Z,15.07
2023-04-10T00:12:47.881Z,14.85
2023-04-10T00:17:04.145Z,14.87
2023-04-10T00:21:20.253Z,15.00
2023-04-10T00:25:36.444Z,13.95
2023-04-10T00:29:52.584Z,14.40
2023-04-10T00:34:09.195Z,14.55
2023-04-10T00:38:25.450Z,14.10
2023-04-10T00:42:41.945Z,15.00
2023-04-10T00:46:58.084Z,15.60
2023-04-10T00:51:14.430Z,14.80
2023-04-10T00:55:30.950Z,14.70
2023-04-10T00:59:48.515Z,13.85
2023-04-10T01:04:04.818Z,15.57
2023-04-10T01:08:39.625Z,14.85
2023-04-10T01:13:11.656Z,13.40
2023-04-10T01:17:51.082Z,14.25
2023-04-10T01:22:12.008Z,14.55
2023-04-10T01:26:56.102Z,15.07
2023-04-10T01:31:15.852Z,14.35
2023-04-10T01:35:34.115Z,15.10
2023-04-10T01:40:09.374Z,15.02
2023-04-10T01:44:29.431Z,14.48
2023-04-10T01:48:50.003Z,15.35
2023-04-10T01:53:07.565Z,14.27
2023-04-10T01:57:23.847Z,14.55
2023-04-10T02:01:40.166Z,13.62
2023-04-10T02:06:10.704Z,14.75
2023-04-10T02:10:50.749Z,15.18
2023-04-10T02:15:08.746Z,12.98
2023-04-10T02:19:27.186Z,14.38
2023-04-10T02:23:43.481Z,14.52
2023-04-10T02:28:03.811Z,13.50
2023-04-10T02:32:20.159Z,13.32
2023-04-10T02:36:39.959Z,14.80
2023-04-10T02:40:56.329Z,14.32
2023-04-10T02:45:12.471Z,14.02
2023-04-10T02:49:28.909Z,15.10
2023-04-10T02:53:45.208Z,14.32
2023-04-10T02:58:01.397Z,15.63
2023-04-10T03:02:18.165Z,14.87
2023-04-10T03:06:34.558Z,15.07
2023-04-10T03:10:50.820Z,14.18
2023-04-10T03:15:07.649Z,14.87
2023-04-10T03:19:23.941Z,13.93
2023-04-10T03:23:40.124Z,14.02
2023-04-10T03:27:56.634Z,15.32
2023-04-10T03:32:12.911Z,14.68
2023-04-10T03:36:29.178Z,13.38
2023-04-10T03:40:45.546Z,14.00
2023-04-10T03:45:04.826Z,14.20
2023-04-10T03:49:21.133Z,15.20
2023-04-10T03:53:37.710Z,14.18
2023-04-10T03:57:53.948Z,14.60
2023-04-10T04:02:11.056Z,14.30
2023-04-10T04:06:27.658Z,15.95
2023-04-10T04:10:43.913Z,14.23
2023-04-10T04:15:00.170Z,16.17
2023-04-10T04:19:16.346Z,14.50
2023-04-10T04:23:32.423Z,15.68
2023-04-10T04:27:48.621Z,15.57
2023-04-10T04:32:04.838Z,16.15
2023-04-10T04:36:21.093Z,16.77
2023-04-10T04:40:37.230Z,16.50
2023-04-10T04:44:53.467Z,15.63
2023-04-10T04:49:09.670Z,15.18
2023-04-10T04:53:25.937Z,14.87
2023-04-10T04:57:42.112Z,15.65
2023-04-10T05:01:58.842Z,15.38
2023-04-10T05:06:14.993Z,13.95
2023-04-10T05:10:31.153Z,15.27
2023-04-10T05:14:47.565Z,15.50
2023-04-10T05:19:03.759Z,15.50
2023-04-10T05:23:20.027Z,15.93
2023-04-10T05:27:36.463Z,14.98
2023-04-10T05:31:53.425Z,15.50
2023-04-10T05:36:11.099Z,16.02
2023-04-10T05:40:28.820Z,16.58
2023-04-10T05:44:45.905Z,18.25
2023-04-10T05:49:02.987Z,16.37
2023-04-10T05:53:20.652Z,16.60
2023-04-10T05:57:36.771Z,15.40
2023-04-10T06:01:53.034Z,16.52
2023-04-10T06:06:09.235Z,16.87
2023-04-10T06:10:25.447Z,16.15
2023-04-10T06:14:41.667Z,17.70
2023-04-10T06:18:58.203Z,15.75
2023-04-10T06:23:14.543Z,15.68
2023-04-10T06:27:30.947Z,15.35
2023-04-10T06:31:47.130Z,14.18
2023-04-10T06:36:04.285Z,14.48
2023-04-10T06:40:20.591Z,14.93
2023-04-10T06:44:36.744Z,15.80
2023-04-10T06:48:53.178Z,14.35
2023-04-10T06:53:09.588Z,17.52
2023-04-10T06:57:25.872Z,17.50
2023-04-10T07:01:42.172Z,15.75
2023-04-10T07:05:58.675Z,17.65
2023-04-10T07:10:14.889Z,17.85
2023-04-10T07:14:32.931Z,15.75
2023-04-10T07:18:48.998Z,16.17
2023-04-10T07:23:05.466Z,16.27
2023-04-10T07:27:21.724Z,17.33
2023-04-10T07:31:38.115Z,18.00
2023-04-10T07:35:54.449Z,18.12
2023-04-10T07:40:11.386Z,19.48
2023-04-10T07:44:28.778Z,19.12
2023-04-10T07:48:44.971Z,19.23
2023-04-10T07:53:03.846Z,20.83
2023-04-10T07:57:19.996Z,20.42
2023-04-10T08:01:36.301Z,19.48
2023-04-10T08:05:52.476Z,21.65
2023-04-10T08:10:09.228Z,21.10
2023-04-10T08:14:25.411Z,20.83
2023-04-10T08:18:41.611Z,21.52
2023-04-10T08:23:03.105Z,18.80
2023-04-10T08:27:30.622Z,19.60
2023-04-10T08:31:46.743Z,18.10
2023-04-10T08:36:03.535Z,18.30
2023-04-10T08:40:19.897Z,18.65
2023-04-10T08:44:37.317Z,19.10
2023-04-10T08:49:02.264Z,17.58
2023-04-10T08:53:22.988Z,15.63
2023-04-10T08:57:42.898Z,14.90
2023-04-10T09:02:01.535Z,14.65
2023-04-10T09:06:17.735Z,13.52
2023-04-10T09:10:33.877Z,13.48
2023-04-10T09:14:53.574Z,13.48
2023-04-10T09:19:09.798Z,12.82
2023-04-10T09:23:25.947Z,13.00
2023-04-10T09:27:44.583Z,12.05
2023-04-10T09:32:00.816Z,11.63
2023-04-10T09:36:18.766Z,9.77
2023-04-10T09:40:34.994Z,9.82
2023-04-10T09:44:55.418Z,10.65
2023-04-10T09:49:11.851Z,9.13
2023-04-10T09:53:28.214Z,9.52
2023-04-10T09:57:45.117Z,8.40
2023-04-10T10:02:01.461Z,8.05
2023-04-10T10:06:18.047Z,8.23
2023-04-10T10:10:34.381Z,7.25
2023-04-10T10:15:11.307Z,6.37
2023-04-10T10:19:33.794Z,8.55
2023-04-10T10:23:54.255Z,7.10
2023-04-10T10:28:12.614Z,6.12
2023-04-10T10:32:29.401Z,6.62
2023-04-10T10:36:45.746Z,6.35
2023-04-10T10:41:08.878Z,6.28
2023-04-10T10:45:31.613Z,7.75
2023-04-10T10:49:57.873Z,8.05
2023-04-10T10:54:33.355Z,8.07
2023-04-10T10:58:50.190Z,6.93
2023-04-10T11:03:09.281Z,7.07
2023-04-10T11:07:45.558Z,6.93
2023-04-10T11:12:01.755Z,7.28
2023-04-10T11:16:18.543Z,7.57
2023-04-10T11:20:56.007Z,7.62
2023-04-10T11:25:12.438Z,8.25
2023-04-10T11:29:28.652Z,7.50
2023-04-10T11:33:45.712Z,7.47
2023-04-10T11:38:18.434Z,6.70
2023-04-10T11:42:34.643Z,5.80
2023-04-10T11:46:51.506Z,5.55
2023-04-10T11:51:09.448Z,6.12
2023-04-10T11:55:38.518Z,6.15
2023-04-10T11:59:56.637Z,5.32
2023-04-10T12:04:18.956Z,5.60
2023-04-10T12:08:37.347Z,6.00
2023-04-10T12:12:53.546Z,6.05
2023-04-10T12:17:11.331Z,5.90
2023-04-10T12:21:28.151Z,6.68
2023-04-10T12:25:44.314Z,6.50
2023-04-10T12:30:00.499Z,6.93
2023-04-10T12:34:19.609Z,7.37
2023-04-10T12:38:38.835Z,6.57
2023-04-10T12:42:55.069Z,7.00
2023-04-10T12:47:11.262Z,7.32
2023-04-10T12:51:50.127Z,7.72
2023-04-10T12:56:06.887Z,6.72
2023-04-10T13:00:25.552Z,7.18
2023-04-10T13:04:41.899Z,6.18
2023-04-10T13:08:58.071Z,6.70
2023-04-10T13:13:15.032Z,7.37
2023-04-10T13:17:31.241Z,6.78
2023-04-10T13:21:47.556Z,6.03
2023-04-10T13:26:03.802Z,5.70
2023-04-10T13:30:19.960Z,5.93
2023-04-10T13:34:36.329Z,5.68
2023-04-10T13:38:52.867Z,5.15
2023-04-10T13:43:09.327Z,5.87
2023-04-10T13:47:25.568Z,5.43
2023-04-10T13:51:41.821Z,6.00
2023-04-10T13:55:58.091Z,5.62
2023-04-10T14:00:14.857Z,5.82
2023-04-10T14:04:30.989Z,5.97
2023-04-10T14:08:47.750Z,5.68
2023-04-10T14:13:03.892Z,6.18
2023-04-10T14:17:20.094Z,5.07
2023-04-10T14:21:39.526Z,5.87
2023-04-10T14:25:55.831Z,6.07
2023-04-10T14:30:12.533Z,5.70
2023-04-10T14:34:28.659Z,5.70
2023-04-10T14:38:44.768Z,6.20
2023-04-10T14:43:00.890Z,6.20
2023-04-10T14:47:17.042Z,5.78
2023-04-10T14:51:33.840Z,6.55
2023-04-10T14:55:50.167Z,6.00
2023-04-10T15:00:06.983Z,5.68
2023-04-10T15:04:23.060Z,5.75
2023-04-10T15:08:39.225Z,6.20
2023-04-10T15:12:55.463Z,6.03
2023-04-10T15:17:11.730Z,5.87
2023-04-10T15:21:31.654Z,6.12
2023-04-10T15:25:47.723Z,5.72
2023-04-10T15:30:04.705Z,6.03
2023-04-10T15:34:21.013Z,6.45
2023-04-10T15:38:37.547Z,6.68
2023-04-10T15:42:53.659Z,7.95
2023-04-10T15:47:09.779Z,6.68
2023-04-10T15:51:27.249Z,10.25
2023-04-10T15:55:43.483Z,8.45
2023-04-10T16:00:01.809Z,8.38
2023-04-10T16:04:18.123Z,7.55
2023-04-10T16:08:34.408Z,9.38
2023-04-10T16:12:50.586Z,9.75
2023-04-10T16:17:06.718Z,7.12
2023-04-10T16:21:23.403Z,10.15
2023-04-10T16:25:39.604Z,11.35
2023-04-10T16:29:55.810Z,23.33
2023-04-10T16:34:12.062Z,15.93
2023-04-10T16:38:28.286Z,10.05
2023-04-10T16:42:44.482Z,10.77
2023-04-10T16:47:00.760Z,10.25
2023-04-10T16:51:18.170Z,9.48
2023-04-10T16:55:39.565Z,9.13
2023-04-10T17:00:01.598Z,8.90
2023-04-10T17:04:21.974Z,8.95
2023-04-10T17:08:38.158Z,10.45
2023-04-10T17:12:54.388Z,10.40
2023-04-10T17:17:10.698Z,9.45
2023-04-10T17:21:27.431Z,10.45
2023-04-10T17:25:44.874Z,9.25
2023-04-10T17:30:01.209Z,9.40
2023-04-10T17:34:17.351Z,9.60
2023-04-10T17:38:33.689Z,9.38
2023-04-10T17:42:49.886Z,10.63
2023-04-10T17:47:06.622Z,9.20
2023-04-10T17:51:22.688Z,9.90
2023-04-10T17:55:39.795Z,10.25
2023-04-10T17:59:56.113Z,11.25
2023-04-10T18:04:12.425Z,11.30
2023-04-10T18:08:28.532Z,12.45
2023-04-10T18:12:45.541Z,12.32
2023-04-10T18:17:01.770Z,10.95
2023-04-10T18:21:17.987Z,10.52
2023-04-10T18:25:34.524Z,10.32
2023-04-10T18:29:50.754Z,10.60
2023-04-10T18:34:08.523Z,10.35
2023-04-10T18:38:26.202Z,9.88
2023-04-10T18:42:42.975Z,10.20
2023-04-10T18:47:04.431Z,10.32
2023-04-10T18:51:22.414Z,11.12
2023-04-10T18:55:38.554Z,11.10
2023-04-10T18:59:54.719Z,10.40
2023-04-10T19:04:12.042Z,10.93
2023-04-10T19:08:28.342Z,10.65
2023-04-10T19:12:45.394Z,10.73
2023-04-10T19:17:06.133Z,11.50
2023-04-10T19:21:22.361Z,11.43
2023-04-10T19:25:38.974Z,10.70
2023-04-10T19:29:55.078Z,10.00
2023-04-10T19:34:12.671Z,11.93
2023-04-10T19:38:29.805Z,12.00
2023-04-10T19:42:46.118Z,10.65
2023-04-10T19:47:02.537Z,11.12
2023-04-10T19:51:18.965Z,10.15
2023-04-10T19:55:35.127Z,10.48
2023-04-10T19:59:51.609Z,9.95
2023-04-10T20:04:08.002Z,9.95
2023-04-10T20:08:24.371Z,9.93
2023-04-10T20:12:40.599Z,8.88
2023-04-10T20:16:56.772Z,7.72
2023-04-10T20:21:12.931Z,7.18
2023-04-10T20:25:29.219Z,7.78
2023-04-10T20:29:45.370Z,7.65
2023-04-10T20:34:01.653Z,7.28
2023-04-10T20:38:19.046Z,7.28
2023-04-10T20:42:35.239Z,6.60
2023-04-10T20:46:51.469Z,9.60
2023-04-10T20:51:09.100Z,8.05
2023-04-10T20:55:25.517Z,8.80
2023-04-10T20:59:41.765Z,8.60
2023-04-10T21:03:59.048Z,9.02
2023-04-10T21:08:15.645Z,7.50
2023-04-10T21:12:31.883Z,7.50
2023-04-10T21:16:48.516Z,9.40
2023-04-10T21:21:05.056Z,8.98
2023-04-10T21:25:21.287Z,8.38
2023-04-10T21:29:37.420Z,8.05
2023-04-10T21:33:53.650Z,8.27
2023-04-10T21:38:09.828Z,7.25
2023-04-10T21:42:26.038Z,6.62
2023-04-10T21:46:42.198Z,7.22
2023-04-10T21:50:58.422Z,7.05
2023-04-10T21:55:18.446Z,7.32
2023-04-10T21:59:34.621Z,7.50
2023-04-10T22:03:51.020Z,7.57
2023-04-10T22:08:07.256Z,7.85
2023-04-10T22:12:23.356Z,8.60
2023-04-10T22:16:39.614Z,8.40
2023-04-10T22:20:55.922Z,7.32
2023-04-10T22:25:12.181Z,8.40
2023-04-10T22:29:28.394Z,8.32
2023-04-10T22:33:44.765Z,7.00
2023-04-10T22:38:03.850Z,8.05
2023-04-10T22:42:20.156Z,7.35
2023-04-10T22:46:37.211Z,7.62
2023-04-10T22:50:53.407Z,8.10
2023-04-10T22:55:09.976Z,8.25
2023-04-10T22:59:26.109Z,8.38
2023-04-10T23:03:45.261Z,8.50
2023-04-10T23:08:01.465Z,8.65
2023-04-10T23:12:17.597Z,8.65
2023-04-10T23:16:33.859Z,7.82
2023-04-10T23:20:50.879Z,8.38
2023-04-10T23:25:07.385Z,9.15
2023-04-10T23:29:23.465Z,8.82
2023-04-10T23:33:39.661Z,9.30
2023-04-10T23:37:55.827Z,9.35
2023-04-10T23:42:11.985Z,8.60
2023-04-10T23:46:28.167Z,9.75
2023-04-10T23:50:44.348Z,9.10
2023-04-10T23:55:00.646Z,8.02
2023-04-10T23:59:17.115Z,9.05
